createdAt,value
2023-07-25T00:01:17.646Z,15.80
2023-07-25T00:03:48.184Z,15.80
2023-07-25T00:06:18.883Z,15.90
2023-07-25T00:08:48.713Z,15.90
2023-07-25T00:11:17.265Z,15.80
2023-07-25T00:13:45.628Z,15.80
2023-07-25T00:16:13.903Z,15.70
2023-07-25T00:18:42.245Z,15.60
2023-07-25T00:21:10.527Z,15.60
2023-07-25T00:23:40.196Z,15.50
2023-07-25T00:26:08.705Z,15.40
2023-07-25T00:28:37.020Z,15.30
2023-07-25T00:31:08.707Z,15.20
2023-07-25T00:33:36.981Z,15.10
2023-07-25T00:36:05.960Z,15.20
2023-07-25T00:38:34.297Z,15.20
2023-07-25T00:41:04.001Z,15.20
2023-07-25T00:43:32.325Z,15.30
2023-07-25T00:46:00.720Z,15.30
2023-07-25T00:48:30.257Z,15.20
2023-07-25T00:50:58.773Z,15.20
2023-07-25T00:53:28.638Z,15.20
2023-07-25T00:55:57.318Z,15.20
2023-07-25T00:58:27.091Z,15.20
2023-07-25T01:01:02.897Z,15.30
2023-07-25T01:03:31.662Z,15.30
2023-07-25T01:06:05.616Z,15.40
2023-07-25T01:08:34.132Z,15.60
2023-07-25T01:11:02.354Z,15.60
2023-07-25T01:13:32.029Z,15.70
2023-07-25T01:16:00.670Z,15.80
2023-07-25T01:18:29.596Z,15.80
2023-07-25T01:20:58.354Z,15.80
2023-07-25T01:23:27.166Z,15.80
2023-07-25T01:25:56.783Z,15.80
2023-07-25T01:28:26.144Z,15.90
2023-07-25T01:30:54.512Z,15.90
2023-07-25T01:33:22.760Z,15.80
2023-07-25T01:35:51.034Z,15.70
2023-07-25T01:38:19.309Z,15.70
2023-07-25T01:40:47.568Z,15.60
2023-07-25T01:43:17.229Z,15.50
2023-07-25T01:45:45.562Z,15.40
2023-07-25T01:48:13.914Z,15.40
2023-07-25T01:50:42.203Z,15.20
2023-07-25T01:53:10.664Z,15.20
2023-07-25T01:55:39.208Z,15.20
2023-07-25T01:58:07.448Z,15.20
2023-07-25T02:00:37.169Z,15.20
2023-07-25T02:03:05.568Z,15.30
2023-07-25T02:05:33.943Z,15.30
2023-07-25T02:08:02.189Z,15.30
2023-07-25T02:10:31.110Z,15.30
2023-07-25T02:12:59.572Z,15.30
2023-07-25T02:15:27.959Z,15.30
2023-07-25T02:17:57.684Z,15.20
2023-07-25T02:20:28.174Z,15.20
2023-07-25T02:22:56.489Z,15.20
2023-07-25T02:25:24.786Z,15.20
2023-07-25T02:27:53.022Z,15.20
2023-07-25T02:30:23.494Z,15.20
2023-07-25T02:32:51.763Z,15.30
2023-07-25T02:35:21.565Z,15.30
2023-07-25T02:37:49.817Z,15.30
2023-07-25T02:40:18.197Z,15.20
2023-07-25T02:42:46.838Z,15.20
2023-07-25T02:45:15.210Z,15.20
2023-07-25T02:47:43.556Z,15.30
2023-07-25T02:50:12.465Z,15.30
2023-07-25T02:52:43.364Z,15.30
2023-07-25T02:55:11.882Z,15.30
2023-07-25T02:57:40.190Z,15.30
2023-07-25T03:00:09.429Z,15.40
2023-07-25T03:02:37.758Z,15.40
2023-07-25T03:05:06.696Z,15.40
2023-07-25T03:07:35.034Z,15.30
2023-07-25T03:10:05.632Z,15.30
2023-07-25T03:12:33.943Z,15.30
2023-07-25T03:15:02.269Z,15.30
2023-07-25T03:17:31.420Z,15.30
2023-07-25T03:19:59.927Z,15.40
2023-07-25T03:22:28.225Z,15.40
2023-07-25T03:24:56.523Z,15.40
2023-07-25T03:27:26.730Z,15.40
2023-07-25T03:29:55.172Z,15.40
2023-07-25T03:32:23.539Z,15.50
2023-07-25T03:34:51.793Z,15.50
2023-07-25T03:37:20.079Z,15.50
2023-07-25T03:39:48.392Z,15.60
2023-07-25T03:42:16.745Z,15.70
2023-07-25T03:44:46.455Z,15.70
2023-07-25T03:47:14.777Z,15.70
2023-07-25T03:49:43.034Z,15.70
2023-07-25T03:52:11.823Z,15.80
2023-07-25T03:54:40.145Z,15.80
2023-07-25T03:57:08.720Z,15.90
2023-07-25T03:59:37.022Z,15.90
2023-07-25T04:02:07.449Z,15.90
2023-07-25T04:04:35.882Z,16.00
2023-07-25T04:07:04.247Z,16.00
2023-07-25T04:09:32.572Z,15.90
2023-07-25T04:12:00.832Z,15.90
2023-07-25T04:14:29.119Z,15.80
2023-07-25T04:16:57.440Z,15.80
2023-07-25T04:19:27.100Z,15.80
2023-07-25T04:21:55.368Z,15.80
2023-07-25T04:24:23.762Z,15.90
2023-07-25T04:26:52.074Z,16.00
2023-07-25T04:29:20.443Z,16.10
2023-07-25T04:31:49.604Z,16.20
2023-07-25T04:34:17.918Z,16.30
2023-07-25T04:36:47.605Z,16.30
2023-07-25T04:39:15.925Z,16.20
2023-07-25T04:41:44.319Z,16.10
2023-07-25T04:44:15.240Z,16.10
2023-07-25T04:46:46.845Z,16.00
2023-07-25T04:49:15.485Z,16.00
2023-07-25T04:51:43.935Z,16.00
2023-07-25T04:54:14.017Z,16.20
2023-07-25T04:56:42.363Z,16.40
2023-07-25T04:59:10.765Z,16.70
2023-07-25T05:01:39.081Z,17.00
2023-07-25T05:04:07.377Z,17.30
2023-07-25T05:06:35.631Z,18.10
2023-07-25T05:09:04.111Z,18.80
2023-07-25T05:11:34.952Z,18.80
2023-07-25T05:14:03.335Z,18.60
2023-07-25T05:16:31.713Z,18.30
2023-07-25T05:18:59.990Z,18.00
2023-07-25T05:21:28.395Z,17.70
2023-07-25T05:23:56.737Z,17.70
2023-07-25T05:26:25.014Z,17.60
2023-07-25T05:28:54.764Z,17.50
2023-07-25T05:31:23.117Z,17.50
2023-07-25T05:33:51.377Z,17.50
2023-07-25T05:36:19.647Z,17.40
2023-07-25T05:38:48.013Z,17.30
2023-07-25T05:41:16.296Z,17.30
2023-07-25T05:43:44.767Z,17.30
2023-07-25T05:46:15.098Z,17.30
2023-07-25T05:48:43.549Z,17.40
2023-07-25T05:51:11.978Z,17.60
2023-07-25T05:53:40.264Z,17.80
2023-07-25T05:56:08.731Z,17.90
2023-07-25T05:58:37.073Z,17.90
2023-07-25T06:01:05.519Z,17.90
2023-07-25T06:03:35.346Z,17.80
2023-07-25T06:06:04.491Z,18.00
2023-07-25T06:08:32.842Z,18.10
2023-07-25T06:11:01.516Z,18.10
2023-07-25T06:13:30.171Z,18.20
2023-07-25T06:15:58.585Z,18.20
2023-07-25T06:18:27.112Z,18.20
2023-07-25T06:20:57.133Z,18.10
2023-07-25T06:23:25.590Z,18.00
2023-07-25T06:25:53.913Z,18.00
2023-07-25T06:28:22.127Z,18.10
2023-07-25T06:30:51.026Z,18.30
2023-07-25T06:33:19.371Z,18.50
2023-07-25T06:35:47.698Z,18.70
2023-07-25T06:38:17.328Z,18.90
2023-07-25T06:40:45.788Z,19.00
2023-07-25T06:43:14.400Z,19.00
2023-07-25T06:45:42.780Z,19.00
2023-07-25T06:48:11.079Z,18.80
2023-07-25T06:50:39.433Z,18.80
2023-07-25T06:53:07.797Z,18.80
2023-07-25T06:55:39.770Z,18.70
2023-07-25T06:58:08.609Z,18.70
2023-07-25T07:00:38.933Z,18.60
2023-07-25T07:03:07.550Z,18.50
2023-07-25T07:05:37.563Z,18.50
2023-07-25T07:08:06.496Z,18.90
2023-07-25T07:10:34.940Z,18.60
2023-07-25T07:13:04.710Z,18.70
2023-07-25T07:15:33.048Z,19.00
2023-07-25T07:18:01.385Z,19.10
2023-07-25T07:20:30.164Z,19.30
2023-07-25T07:22:58.457Z,19.70
2023-07-25T07:25:27.457Z,19.80
2023-07-25T07:27:55.746Z,19.80
2023-07-25T07:30:25.591Z,19.80
2023-07-25T07:32:54.150Z,19.50
2023-07-25T07:35:22.605Z,19.40
2023-07-25T07:37:50.982Z,19.30
2023-07-25T07:40:19.505Z,19.20
2023-07-25T07:42:48.025Z,19.00
2023-07-25T07:45:16.430Z,19.00
2023-07-25T07:47:49.184Z,18.90
2023-07-25T07:50:17.636Z,18.80
2023-07-25T07:52:46.110Z,18.70
2023-07-25T07:55:15.228Z,18.60
2023-07-25T07:57:45.059Z,18.40
2023-07-25T08:00:15.806Z,18.30
2023-07-25T08:02:44.874Z,18.20
2023-07-25T08:05:15.307Z,18.00
2023-07-25T08:07:44.429Z,18.00
2023-07-25T08:10:13.241Z,18.00
2023-07-25T08:12:41.900Z,18.00
2023-07-25T08:15:10.658Z,18.20
2023-07-25T08:17:39.022Z,18.50
2023-07-25T08:20:08.634Z,18.70
2023-07-25T08:22:38.364Z,19.00
2023-07-25T08:25:07.585Z,19.40
2023-07-25T08:27:35.878Z,19.70
2023-07-25T08:30:04.617Z,20.00
2023-07-25T08:32:32.885Z,20.30
2023-07-25T08:35:01.274Z,20.60
2023-07-25T08:37:29.555Z,21.10
2023-07-25T08:39:59.223Z,21.40
2023-07-25T08:42:28.972Z,21.70
2023-07-25T08:44:58.459Z,22.00
2023-07-25T08:47:30.275Z,22.50
2023-07-25T08:49:59.844Z,22.70
2023-07-25T08:52:30.492Z,22.70
2023-07-25T08:55:00.415Z,23.20
2023-07-25T08:57:30.875Z,23.40
2023-07-25T08:59:59.896Z,23.40
2023-07-25T09:02:28.461Z,23.30
2023-07-25T09:04:57.736Z,23.20
2023-07-25T09:07:26.153Z,23.00
2023-07-25T09:09:54.397Z,22.80
2023-07-25T09:12:24.173Z,22.50
2023-07-25T09:14:53.733Z,22.40
2023-07-25T09:17:22.292Z,22.30
2023-07-25T09:19:50.674Z,22.20
2023-07-25T09:22:37.030Z,22.20
2023-07-25T09:25:10.265Z,22.60
2023-07-25T09:27:39.972Z,22.70
2023-07-25T09:30:14.112Z,22.90
2023-07-25T09:32:48.522Z,22.90
2023-07-25T09:35:17.021Z,22.90
2023-07-25T09:37:52.822Z,22.90
2023-07-25T09:40:21.254Z,23.40
2023-07-25T09:42:52.666Z,23.70
2023-07-25T09:45:22.169Z,23.90
2023-07-25T09:47:54.034Z,24.00
2023-07-25T09:50:27.454Z,24.50
2023-07-25T09:52:55.766Z,24.90
2023-07-25T09:55:24.129Z,25.50
2023-07-25T09:57:54.680Z,26.20
2023-07-25T10:00:23.556Z,26.50
2023-07-25T10:02:52.917Z,26.90
2023-07-25T10:05:21.911Z,27.20
2023-07-25T10:07:51.540Z,27.90
2023-07-25T10:10:20.382Z,28.60
2023-07-25T10:12:49.092Z,29.00
2023-07-25T10:15:19.433Z,28.60
2023-07-25T10:17:48.306Z,28.10
2023-07-25T10:20:22.991Z,27.90
2023-07-25T10:22:52.327Z,27.40
2023-07-25T10:25:22.508Z,26.80
2023-07-25T10:27:57.017Z,25.90
2023-07-25T10:30:28.140Z,25.40
2023-07-25T10:32:58.230Z,24.90
2023-07-25T10:35:43.827Z,24.50
2023-07-25T10:38:13.648Z,24.30
2023-07-25T10:40:58.692Z,24.10
2023-07-25T10:43:31.406Z,24.10
2023-07-25T10:46:03.640Z,24.30
2023-07-25T10:48:46.611Z,24.60
2023-07-25T10:51:16.790Z,24.60
2023-07-25T10:54:09.778Z,25.10
2023-07-25T10:56:38.862Z,25.40
2023-07-25T10:59:09.293Z,25.70
2023-07-25T11:01:45.575Z,26.50
2023-07-25T11:04:31.509Z,27.10
2023-07-25T11:07:09.538Z,27.20
2023-07-25T11:09:43.079Z,26.70
2023-07-25T11:12:12.100Z,25.90
2023-07-25T11:14:44.578Z,25.20
2023-07-25T11:17:15.589Z,24.60
2023-07-25T11:19:43.998Z,23.80
2023-07-25T11:22:13.621Z,23.40
2023-07-25T11:24:45.777Z,23.20
2023-07-25T11:27:14.802Z,23.10
2023-07-25T11:29:43.207Z,23.20
2023-07-25T11:32:11.578Z,23.30
2023-07-25T11:34:41.246Z,23.60
2023-07-25T11:37:13.387Z,23.70
2023-07-25T11:39:41.857Z,23.70
2023-07-25T11:42:13.687Z,23.70
2023-07-25T11:44:43.129Z,23.90
2023-07-25T11:47:11.493Z,24.10
2023-07-25T11:49:51.365Z,24.30
2023-07-25T11:52:24.528Z,24.30
2023-07-25T11:54:52.905Z,23.90
2023-07-25T11:57:21.325Z,23.70
2023-07-25T11:59:55.708Z,23.50
2023-07-25T12:02:27.456Z,23.40
2023-07-25T12:04:57.372Z,23.50
2023-07-25T12:07:25.935Z,23.70
2023-07-25T12:09:56.227Z,23.70
2023-07-25T12:12:24.721Z,23.70
2023-07-25T12:14:58.277Z,23.80
2023-07-25T12:17:43.230Z,23.90
2023-07-25T12:20:17.609Z,24.20
2023-07-25T12:22:46.337Z,24.40
2023-07-25T12:25:17.711Z,24.40
2023-07-25T12:27:53.509Z,24.50
2023-07-25T12:30:21.820Z,24.60
2023-07-25T12:32:50.263Z,24.80
2023-07-25T12:35:20.281Z,24.80
2023-07-25T12:37:48.533Z,24.50
2023-07-25T12:40:16.870Z,24.30
2023-07-25T12:42:45.170Z,24.30
2023-07-25T12:45:13.436Z,24.40
2023-07-25T12:47:41.903Z,25.00
2023-07-25T12:50:11.161Z,25.00
2023-07-25T12:52:41.194Z,25.10
2023-07-25T12:55:10.405Z,25.50
2023-07-25T12:57:38.981Z,25.50
2023-07-25T13:00:09.404Z,25.90
2023-07-25T13:02:38.618Z,25.70
2023-07-25T13:05:08.154Z,25.70
2023-07-25T13:07:36.676Z,25.70
2023-07-25T13:10:08.538Z,25.30
2023-07-25T13:12:36.937Z,25.20
2023-07-25T13:15:05.929Z,24.80
2023-07-25T13:17:34.545Z,24.60
2023-07-25T13:20:04.992Z,24.40
2023-07-25T13:22:33.462Z,24.30
2023-07-25T13:25:02.560Z,24.10
2023-07-25T13:27:32.334Z,23.90
2023-07-25T13:30:01.487Z,23.80
2023-07-25T13:32:29.870Z,23.50
2023-07-25T13:34:58.177Z,23.30
2023-07-25T13:37:26.451Z,23.20
2023-07-25T13:39:54.815Z,23.00
2023-07-25T13:42:26.405Z,22.80
2023-07-25T13:44:56.293Z,22.70
2023-07-25T13:47:24.577Z,22.60
2023-07-25T13:49:52.929Z,22.50
2023-07-25T13:52:21.148Z,22.30
2023-07-25T13:54:49.461Z,22.10
2023-07-25T13:57:17.766Z,21.90
2023-07-25T13:59:46.007Z,21.80
2023-07-25T14:02:15.706Z,21.80
2023-07-25T14:04:49.948Z,21.60
2023-07-25T14:07:18.291Z,21.50
2023-07-25T14:09:46.652Z,21.50
2023-07-25T14:12:14.932Z,21.50
2023-07-25T14:14:43.222Z,21.50
2023-07-25T14:17:11.525Z,21.40
2023-07-25T14:19:41.266Z,21.30
2023-07-25T14:22:09.560Z,21.10
2023-07-25T14:24:43.466Z,21.00
2023-07-25T14:27:11.823Z,20.90
2023-07-25T14:29:40.112Z,20.70
2023-07-25T14:32:11.461Z,20.40
2023-07-25T14:34:41.219Z,20.30
2023-07-25T14:37:09.467Z,20.20
2023-07-25T14:39:37.819Z,19.90
2023-07-25T14:42:06.511Z,19.40
2023-07-25T14:44:34.861Z,18.50
2023-07-25T14:47:03.352Z,17.90
2023-07-25T14:49:32.191Z,17.50
2023-07-25T14:52:02.132Z,17.30
2023-07-25T14:54:31.099Z,17.10
2023-07-25T14:56:59.476Z,16.80
2023-07-25T14:59:27.994Z,16.50
2023-07-25T15:01:56.651Z,16.30
2023-07-25T15:04:25.203Z,16.10
2023-07-25T15:06:53.653Z,15.90
2023-07-25T15:09:23.535Z,15.80
2023-07-25T15:11:52.015Z,15.70
2023-07-25T15:14:21.773Z,15.60
2023-07-25T15:16:51.681Z,15.60
2023-07-25T15:19:20.123Z,15.60
2023-07-25T15:21:48.546Z,15.50
2023-07-25T15:24:17.364Z,15.60
2023-07-25T15:26:47.219Z,15.50
2023-07-25T15:29:15.889Z,15.60
2023-07-25T15:31:44.613Z,15.40
2023-07-25T15:34:13.454Z,15.40
2023-07-25T15:36:44.754Z,15.50
2023-07-25T15:39:16.953Z,15.50
2023-07-25T15:41:47.476Z,15.50
2023-07-25T15:44:16.089Z,15.40
2023-07-25T15:46:48.367Z,15.80
2023-07-25T15:49:17.029Z,15.60
2023-07-25T15:51:46.341Z,15.60
2023-07-25T15:54:15.355Z,15.70
2023-07-25T15:56:56.158Z,15.70
2023-07-25T15:59:30.510Z,15.70
2023-07-25T16:01:59.700Z,16.00
2023-07-25T16:04:28.891Z,15.70
2023-07-25T16:06:57.755Z,15.90
2023-07-25T16:09:28.208Z,15.70
2023-07-25T16:11:58.743Z,15.60
2023-07-25T16:14:30.232Z,15.50
2023-07-25T16:16:59.569Z,15.50
2023-07-25T16:19:28.690Z,15.50
2023-07-25T16:21:57.344Z,15.40
2023-07-25T16:24:26.099Z,15.40
2023-07-25T16:26:54.837Z,15.20
2023-07-25T16:29:23.475Z,15.40
2023-07-25T16:31:53.776Z,15.30
2023-07-25T16:34:25.422Z,15.30
2023-07-25T16:36:54.005Z,15.50
2023-07-25T16:39:21.470Z,15.30
2023-07-25T16:41:50.104Z,15.30
2023-07-25T16:44:18.798Z,15.30
2023-07-25T16:46:47.292Z,15.30
2023-07-25T16:49:17.127Z,15.20
2023-07-25T16:51:46.358Z,15.30
2023-07-25T16:54:15.018Z,15.20
2023-07-25T16:56:43.496Z,15.40
2023-07-25T16:59:12.092Z,15.30
2023-07-25T17:01:40.666Z,15.40
2023-07-25T17:04:09.293Z,15.40
2023-07-25T17:06:39.410Z,15.40
2023-07-25T17:09:10.996Z,15.60
2023-07-25T17:11:39.501Z,15.30
2023-07-25T17:14:08.173Z,15.40
2023-07-25T17:16:36.777Z,15.00
2023-07-25T17:19:05.620Z,15.30
2023-07-25T17:21:40.671Z,15.30
2023-07-25T17:24:11.577Z,15.20
2023-07-25T17:26:40.166Z,15.30
2023-07-25T17:29:08.711Z,15.20
2023-07-25T17:31:40.053Z,15.30
2023-07-25T17:34:09.110Z,15.20
2023-07-25T17:36:37.507Z,15.20
2023-07-25T17:39:05.935Z,15.20
2023-07-25T17:41:38.615Z,15.10
2023-07-25T17:44:07.038Z,15.10
2023-07-25T17:46:38.537Z,15.20
2023-07-25T17:49:06.972Z,15.10
2023-07-25T17:51:38.655Z,15.10
2023-07-25T17:54:10.335Z,15.20
2023-07-25T17:56:45.541Z,15.00
2023-07-25T17:59:15.153Z,15.00
2023-07-25T18:01:45.928Z,14.90
2023-07-25T18:04:16.514Z,15.00
2023-07-25T18:06:50.316Z,15.00
2023-07-25T18:09:24.627Z,15.20
2023-07-25T18:11:57.087Z,14.50
2023-07-25T18:14:29.755Z,15.00
2023-07-25T18:17:02.121Z,14.90
2023-07-25T18:19:40.246Z,14.80
2023-07-25T18:22:10.002Z,14.60
2023-07-25T18:24:41.764Z,14.90
2023-07-25T18:27:11.807Z,14.80
2023-07-25T18:29:47.065Z,14.80
2023-07-25T18:32:18.586Z,14.70
2023-07-25T18:34:47.091Z,14.80
2023-07-25T18:37:15.480Z,14.70
2023-07-25T18:39:49.866Z,14.70
2023-07-25T18:42:20.145Z,14.60
2023-07-25T18:44:51.441Z,14.60
2023-07-25T18:47:33.751Z,14.50
2023-07-25T18:50:03.440Z,14.60
2023-07-25T18:52:31.907Z,14.60
2023-07-25T18:55:00.533Z,14.60
2023-07-25T18:57:30.777Z,14.70
2023-07-25T18:59:59.186Z,14.50
2023-07-25T19:02:27.681Z,14.50
2023-07-25T19:04:56.613Z,14.50
2023-07-25T19:07:31.369Z,14.60
2023-07-25T19:10:00.176Z,14.70
2023-07-25T19:12:30.602Z,14.50
2023-07-25T19:14:59.775Z,14.40
2023-07-25T19:17:28.879Z,14.60
2023-07-25T19:19:59.371Z,14.40
2023-07-25T19:22:28.517Z,14.40
2023-07-25T19:25:03.912Z,14.40
2023-07-25T19:27:35.052Z,14.20
2023-07-25T19:30:08.483Z,14.30
2023-07-25T19:32:41.800Z,14.20
2023-07-25T19:35:11.522Z,14.20
2023-07-25T19:37:48.073Z,14.20
2023-07-25T19:40:17.633Z,14.40
2023-07-25T19:42:51.452Z,14.10
2023-07-25T19:45:21.207Z,14.40
2023-07-25T19:47:50.468Z,14.20
2023-07-25T19:50:19.452Z,13.80
2023-07-25T19:52:48.137Z,14.10
2023-07-25T19:55:16.846Z,14.10
2023-07-25T19:57:47.315Z,14.10
2023-07-25T20:00:22.120Z,14.10
2023-07-25T20:02:50.751Z,14.10
2023-07-25T20:05:19.477Z,14.20
2023-07-25T20:07:49.099Z,14.30
2023-07-25T20:10:17.806Z,14.00
2023-07-25T20:12:49.180Z,13.90
2023-07-25T20:15:19.692Z,14.20
2023-07-25T20:17:49.164Z,14.10
2023-07-25T20:20:17.792Z,13.90
2023-07-25T20:22:46.630Z,13.70
2023-07-25T20:25:16.249Z,13.70
2023-07-25T20:27:44.889Z,13.70
2023-07-25T20:30:15.222Z,13.60
2023-07-25T20:32:43.946Z,13.20
2023-07-25T20:35:12.405Z,13.40
2023-07-25T20:37:40.889Z,13.40
2023-07-25T20:40:10.703Z,13.30
2023-07-25T20:42:39.164Z,13.50
2023-07-25T20:45:09.267Z,13.50
2023-07-25T20:47:39.536Z,13.60
2023-07-25T20:50:09.069Z,13.30
2023-07-25T20:52:37.866Z,13.30
2023-07-25T20:55:07.492Z,13.30
2023-07-25T20:57:36.035Z,13.50
2023-07-25T21:00:05.802Z,13.20
2023-07-25T21:02:34.769Z,13.10
2023-07-25T21:05:05.909Z,13.40
2023-07-25T21:07:34.948Z,13.40
2023-07-25T21:10:05.020Z,13.30
2023-07-25T21:12:34.513Z,13.40
2023-07-25T21:15:03.994Z,13.20
2023-07-25T21:17:35.078Z,13.50
2023-07-25T21:20:07.050Z,13.20
2023-07-25T21:22:35.849Z,13.40
2023-07-25T21:25:06.260Z,13.20
2023-07-25T21:27:35.137Z,12.80
2023-07-25T21:30:03.742Z,13.10
2023-07-25T21:32:32.281Z,13.20
2023-07-25T21:35:00.896Z,13.00
2023-07-25T21:37:30.826Z,13.00
2023-07-25T21:39:59.284Z,13.10
2023-07-25T21:42:27.820Z,13.10
2023-07-25T21:44:57.175Z,13.10
2023-07-25T21:47:25.732Z,13.00
2023-07-25T21:49:54.192Z,12.80
2023-07-25T21:52:22.677Z,13.10
2023-07-25T21:54:52.756Z,12.90
2023-07-25T21:57:21.295Z,12.80
2023-07-25T21:59:49.697Z,12.80
2023-07-25T22:02:29.384Z,12.80
2023-07-25T22:04:58.364Z,12.70
2023-07-25T22:07:26.812Z,12.80
2023-07-25T22:09:56.758Z,12.80
2023-07-25T22:12:25.284Z,12.80
2023-07-25T22:14:53.765Z,12.80
2023-07-25T22:17:22.266Z,12.70
2023-07-25T22:19:50.757Z,12.90
2023-07-25T22:22:19.171Z,12.80
2023-07-25T22:24:47.696Z,12.80
2023-07-25T22:27:17.636Z,12.70
2023-07-25T22:29:46.906Z,12.80
2023-07-25T22:32:15.727Z,12.90
2023-07-25T22:34:44.224Z,12.80
2023-07-25T22:37:12.755Z,12.80
2023-07-25T22:39:41.423Z,13.00
2023-07-25T22:42:09.905Z,12.90
2023-07-25T22:44:40.069Z,12.90
2023-07-25T22:47:08.717Z,12.80
2023-07-25T22:49:37.828Z,12.90
2023-07-25T22:52:08.035Z,12.80
2023-07-25T22:54:36.907Z,13.20
2023-07-25T22:57:09.047Z,13.00
2023-07-25T22:59:38.846Z,12.90
2023-07-25T23:02:10.168Z,13.10
2023-07-25T23:04:39.805Z,13.10
2023-07-25T23:07:09.787Z,12.90
2023-07-25T23:09:39.063Z,12.90
2023-07-25T23:12:09.877Z,12.80
2023-07-25T23:14:39.591Z,12.50
2023-07-25T23:17:10.717Z,12.90
2023-07-25T23:19:39.591Z,12.60
2023-07-25T23:22:08.865Z,12.70
2023-07-25T23:24:38.524Z,12.50
2023-07-25T23:27:08.668Z,12.90
2023-07-25T23:29:39.273Z,12.70
2023-07-25T23:32:11.179Z,12.90
2023-07-25T23:34:48.458Z,12.80
2023-07-25T23:37:17.966Z,12.90
2023-07-25T23:39:47.419Z,12.70
2023-07-25T23:42:16.942Z,12.70
2023-07-25T23:44:45.875Z,12.90
2023-07-25T23:47:16.572Z,12.60
2023-07-25T23:49:45.812Z,12.80
2023-07-25T23:52:14.945Z,12.80
2023-07-25T23:54:43.726Z,13.00
2023-07-25T23:57:13.410Z,13.20
2023-07-25T23:59:43.830Z,12.70
